createdAt,value
2023-05-09T00:01:26.525Z,13.60
2023-05-09T00:03:52.819Z,13.61
2023-05-09T00:06:19.188Z,14.01
2023-05-09T00:08:45.833Z,14.36
2023-05-09T00:11:12.097Z,14.51
2023-05-09T00:13:38.390Z,14.42
2023-05-09T00:16:04.697Z,14.62
2023-05-09T00:18:32.317Z,14.70
2023-05-09T00:20:58.606Z,14.73
2023-05-09T00:23:24.876Z,14.75
2023-05-09T00:25:51.140Z,14.81
2023-05-09T00:28:17.407Z,14.84
2023-05-09T00:30:43.688Z,14.92
2023-05-09T00:33:10.075Z,14.87
2023-05-09T00:35:36.420Z,14.94
2023-05-09T00:38:02.685Z,14.92
2023-05-09T00:40:28.984Z,14.93
2023-05-09T00:42:55.303Z,14.77
2023-05-09T00:45:21.584Z,14.60
2023-05-09T00:47:47.959Z,14.57
2023-05-09T00:50:14.240Z,14.53
2023-05-09T00:52:40.541Z,14.61
2023-05-09T00:55:06.812Z,14.48
2023-05-09T00:57:33.106Z,14.21
2023-05-09T00:59:59.505Z,14.28
2023-05-09T01:02:25.817Z,14.07
2023-05-09T01:04:52.123Z,14.16
2023-05-09T01:07:18.414Z,14.23
2023-05-09T01:09:44.722Z,14.34
2023-05-09T01:15:14.286Z,14.70
2023-05-09T01:17:40.868Z,14.48
2023-05-09T01:20:07.174Z,14.17
2023-05-09T01:22:33.463Z,14.30
2023-05-09T01:24:59.707Z,13.88
2023-05-09T01:27:25.940Z,13.62
2023-05-09T01:29:52.170Z,13.81
2023-05-09T01:32:18.448Z,14.26
2023-05-09T01:34:44.704Z,13.95
2023-05-09T01:37:10.995Z,13.91
2023-05-09T01:39:37.235Z,13.82
2023-05-09T01:42:03.523Z,13.82
2023-05-09T01:44:29.819Z,14.22
2023-05-09T01:46:56.059Z,14.00
2023-05-09T01:49:22.360Z,13.91
2023-05-09T01:51:48.659Z,13.60
2023-05-09T01:54:14.922Z,13.71
2023-05-09T01:56:41.157Z,13.85
2023-05-09T01:59:07.391Z,13.83
2023-05-09T02:01:33.631Z,13.65
2023-05-09T02:03:59.897Z,13.78
2023-05-09T02:06:26.161Z,13.73
2023-05-09T02:08:52.395Z,13.41
2023-05-09T02:11:18.647Z,13.38
2023-05-09T02:13:44.910Z,12.93
2023-05-09T02:16:11.154Z,12.75
2023-05-09T02:18:37.426Z,12.35
2023-05-09T02:21:03.683Z,12.04
2023-05-09T02:23:29.933Z,12.16
2023-05-09T02:25:56.171Z,12.12
2023-05-09T02:28:22.430Z,11.84
2023-05-09T02:30:48.676Z,11.70
2023-05-09T02:33:14.917Z,11.72
2023-05-09T02:35:41.166Z,11.92
2023-05-09T02:38:07.426Z,12.09
2023-05-09T02:40:33.674Z,12.10
2023-05-09T02:42:59.898Z,12.41
2023-05-09T02:45:26.157Z,12.48
2023-05-09T02:47:52.425Z,12.15
2023-05-09T02:50:18.674Z,12.06
2023-05-09T02:52:44.904Z,11.87
2023-05-09T02:55:11.141Z,11.87
2023-05-09T02:57:37.437Z,11.79
2023-05-09T03:00:03.678Z,11.89
2023-05-09T03:02:29.965Z,12.39
2023-05-09T03:04:56.251Z,12.70
2023-05-09T03:07:22.496Z,13.00
2023-05-09T03:09:48.751Z,13.27
2023-05-09T03:12:15.054Z,13.55
2023-05-09T03:14:41.297Z,13.57
2023-05-09T03:17:07.517Z,13.40
2023-05-09T03:19:33.746Z,13.27
2023-05-09T03:22:00.006Z,13.19
2023-05-09T03:24:26.252Z,12.65
2023-05-09T03:26:52.515Z,12.32
2023-05-09T03:29:18.736Z,12.58
2023-05-09T03:31:45.049Z,12.83
2023-05-09T03:34:11.377Z,13.15
2023-05-09T03:36:37.674Z,13.31
2023-05-09T03:39:03.889Z,13.22
2023-05-09T03:41:30.105Z,13.22
2023-05-09T03:43:56.323Z,12.99
2023-05-09T03:46:22.648Z,12.92
2023-05-09T03:48:48.956Z,12.83
2023-05-09T03:51:15.202Z,12.80
2023-05-09T03:53:41.434Z,12.99
2023-05-09T03:56:07.713Z,12.89
2023-05-09T03:58:33.993Z,12.63
2023-05-09T04:01:00.273Z,12.67
2023-05-09T04:03:26.577Z,12.98
2023-05-09T04:05:52.822Z,13.14
2023-05-09T04:08:19.068Z,12.57
2023-05-09T04:10:45.323Z,12.34
2023-05-09T04:13:11.734Z,12.51
2023-05-09T04:15:38.027Z,12.79
2023-05-09T04:18:04.292Z,13.18
2023-05-09T04:20:30.619Z,13.40
2023-05-09T04:22:56.935Z,13.48
2023-05-09T04:25:23.161Z,13.57
2023-05-09T04:27:49.467Z,13.41
2023-05-09T04:30:15.763Z,12.89
2023-05-09T04:32:42.062Z,13.34
2023-05-09T04:35:08.389Z,13.61
2023-05-09T04:37:34.693Z,13.67
2023-05-09T04:40:00.976Z,13.67
2023-05-09T04:42:27.265Z,13.74
2023-05-09T04:44:53.510Z,13.64
2023-05-09T04:47:19.735Z,13.76
2023-05-09T04:49:45.967Z,13.70
2023-05-09T04:52:12.208Z,13.15
2023-05-09T04:54:38.644Z,12.80
2023-05-09T04:57:16.526Z,13.36
2023-05-09T04:59:44.413Z,13.93
2023-05-09T05:02:10.691Z,14.16
2023-05-09T05:04:36.983Z,14.51
2023-05-09T05:07:03.310Z,14.75
2023-05-09T05:09:29.534Z,14.90
2023-05-09T05:12:01.278Z,14.86
2023-05-09T05:14:28.800Z,15.24
2023-05-09T05:16:55.123Z,15.58
2023-05-09T05:19:21.448Z,15.74
2023-05-09T05:21:47.689Z,15.54
2023-05-09T05:24:13.983Z,15.09
2023-05-09T05:26:40.278Z,15.51
2023-05-09T05:29:06.506Z,15.09
2023-05-09T05:31:32.800Z,15.19
2023-05-09T05:33:59.048Z,14.79
2023-05-09T05:36:25.334Z,14.83
2023-05-09T05:38:51.645Z,15.44
2023-05-09T05:41:17.896Z,15.52
2023-05-09T05:43:44.148Z,15.54
2023-05-09T05:46:10.467Z,15.79
2023-05-09T05:48:36.721Z,15.54
2023-05-09T05:51:03.056Z,15.42
2023-05-09T05:53:30.805Z,15.43
2023-05-09T05:55:58.357Z,14.97
2023-05-09T05:58:24.607Z,14.64
2023-05-09T06:00:50.856Z,15.06
2023-05-09T06:03:17.212Z,15.54
2023-05-09T06:05:43.590Z,15.58
2023-05-09T06:08:09.808Z,16.39
2023-05-09T06:10:36.063Z,16.10
2023-05-09T06:13:02.384Z,16.40
2023-05-09T06:15:28.651Z,16.16
2023-05-09T06:17:54.982Z,16.82
2023-05-09T06:20:21.263Z,15.77
2023-05-09T06:22:47.491Z,15.82
2023-05-09T06:25:13.892Z,15.44
2023-05-09T06:27:40.409Z,15.41
2023-05-09T06:30:23.890Z,15.69
2023-05-09T06:32:52.463Z,16.17
2023-05-09T06:35:18.738Z,15.97
2023-05-09T06:37:46.995Z,15.51
2023-05-09T06:40:14.582Z,15.54
2023-05-09T06:42:40.839Z,16.46
2023-05-09T06:45:08.898Z,16.41
2023-05-09T06:47:35.225Z,16.07
2023-05-09T06:50:01.477Z,15.76
2023-05-09T06:52:27.729Z,15.78
2023-05-09T06:54:53.949Z,15.70
2023-05-09T06:57:20.300Z,15.82
2023-05-09T06:59:46.524Z,15.64
2023-05-09T07:02:12.778Z,15.56
2023-05-09T07:04:40.042Z,15.93
2023-05-09T07:07:06.335Z,15.79
2023-05-09T07:09:32.601Z,15.63
2023-05-09T07:11:58.832Z,15.50
2023-05-09T07:14:25.082Z,15.49
2023-05-09T07:16:51.767Z,15.01
2023-05-09T07:19:18.084Z,15.31
2023-05-09T07:21:44.315Z,16.26
2023-05-09T07:24:10.628Z,15.85
2023-05-09T07:26:36.863Z,16.09
2023-05-09T07:29:03.149Z,16.28
2023-05-09T07:31:29.449Z,15.70
2023-05-09T07:33:55.694Z,16.02
2023-05-09T07:36:22.036Z,16.66
2023-05-09T07:38:48.275Z,16.60
2023-05-09T07:41:14.466Z,16.51
2023-05-09T07:43:40.696Z,16.31
2023-05-09T07:46:06.959Z,16.21
2023-05-09T07:48:33.220Z,15.99
2023-05-09T07:50:59.464Z,16.18
2023-05-09T07:53:25.745Z,16.19
2023-05-09T07:55:51.991Z,16.25
2023-05-09T07:58:18.239Z,16.41
2023-05-09T08:00:45.745Z,16.42
2023-05-09T08:03:12.156Z,16.27
2023-05-09T08:05:38.447Z,16.34
2023-05-09T08:08:04.764Z,16.18
2023-05-09T08:10:30.994Z,15.99
2023-05-09T08:12:57.331Z,16.72
2023-05-09T08:15:23.588Z,16.91
2023-05-09T08:17:49.888Z,16.87
2023-05-09T08:20:16.171Z,17.25
2023-05-09T08:22:42.468Z,17.32
2023-05-09T08:25:08.742Z,17.05
2023-05-09T08:27:34.982Z,17.38
2023-05-09T08:30:01.208Z,17.50
2023-05-09T08:32:27.511Z,17.83
2023-05-09T08:34:53.816Z,17.57
2023-05-09T08:37:20.112Z,18.00
2023-05-09T08:39:46.329Z,17.43
2023-05-09T08:42:12.577Z,17.31
2023-05-09T08:44:38.818Z,17.78
2023-05-09T08:47:05.240Z,17.47
2023-05-09T08:49:31.614Z,17.62
2023-05-09T08:51:57.872Z,17.59
2023-05-09T08:54:24.102Z,17.79
2023-05-09T08:56:50.355Z,17.58
2023-05-09T08:59:16.636Z,17.91
2023-05-09T09:01:42.888Z,18.05
2023-05-09T09:04:09.134Z,18.28
2023-05-09T09:06:35.355Z,18.04
2023-05-09T09:09:01.595Z,18.28
2023-05-09T09:11:27.828Z,17.89
2023-05-09T09:13:54.071Z,18.37
2023-05-09T09:16:20.347Z,18.46
2023-05-09T09:18:46.621Z,19.15
2023-05-09T09:21:12.868Z,18.67
2023-05-09T09:23:39.112Z,19.17
2023-05-09T09:26:05.337Z,19.33
2023-05-09T09:28:31.563Z,19.49
2023-05-09T09:30:57.795Z,19.70
2023-05-09T09:33:24.032Z,19.31
2023-05-09T09:35:50.284Z,19.35
2023-05-09T09:38:16.584Z,19.56
2023-05-09T09:40:42.891Z,18.94
2023-05-09T09:43:09.127Z,19.40
2023-05-09T09:45:35.411Z,19.57
2023-05-09T09:48:01.769Z,19.70
2023-05-09T09:50:28.057Z,19.55
2023-05-09T09:52:54.287Z,19.66
2023-05-09T09:55:20.531Z,20.17
2023-05-09T09:57:46.799Z,20.23
2023-05-09T10:00:13.327Z,20.25
2023-05-09T10:02:39.807Z,19.70
2023-05-09T10:05:06.053Z,20.32
2023-05-09T10:07:32.295Z,20.03
2023-05-09T10:09:58.530Z,19.58
2023-05-09T10:12:24.778Z,19.37
2023-05-09T10:14:53.249Z,19.59
2023-05-09T10:17:19.685Z,19.92
2023-05-09T10:19:45.972Z,19.52
2023-05-09T10:22:12.216Z,20.35
2023-05-09T10:24:38.490Z,20.12
2023-05-09T10:27:04.755Z,20.00
2023-05-09T10:29:30.993Z,20.67
2023-05-09T10:31:57.238Z,21.02
2023-05-09T10:34:23.493Z,20.81
2023-05-09T10:36:49.714Z,20.60
2023-05-09T10:39:15.935Z,20.77
2023-05-09T10:41:42.161Z,20.19
2023-05-09T10:44:08.376Z,20.69
2023-05-09T10:46:34.709Z,20.56
2023-05-09T10:49:00.975Z,20.49
2023-05-09T10:51:27.224Z,20.72
2023-05-09T10:53:53.461Z,20.54
2023-05-09T10:56:19.709Z,20.60
2023-05-09T10:58:45.948Z,20.38
2023-05-09T11:01:12.269Z,19.49
2023-05-09T11:03:38.678Z,19.90
2023-05-09T11:06:04.998Z,19.68
2023-05-09T11:08:31.222Z,19.90
2023-05-09T11:10:57.473Z,19.87
2023-05-09T11:13:23.722Z,20.36
2023-05-09T11:15:50.056Z,20.70
2023-05-09T11:18:17.083Z,20.63
2023-05-09T11:20:43.417Z,21.09
2023-05-09T11:23:09.718Z,20.72
2023-05-09T11:25:35.952Z,20.28
2023-05-09T11:28:02.199Z,21.11
2023-05-09T11:30:28.479Z,20.66
2023-05-09T11:32:54.771Z,20.80
2023-05-09T11:35:21.103Z,20.63
2023-05-09T11:37:47.362Z,21.51
2023-05-09T11:40:13.631Z,20.84
2023-05-09T11:42:39.892Z,20.94
2023-05-09T11:45:06.129Z,20.99
2023-05-09T11:47:32.378Z,21.00
2023-05-09T11:49:58.610Z,21.09
2023-05-09T11:52:24.873Z,20.73
2023-05-09T11:54:51.105Z,20.69
2023-05-09T11:57:17.407Z,20.88
2023-05-09T11:59:43.696Z,20.93
2023-05-09T12:02:09.957Z,20.58
2023-05-09T12:04:36.290Z,20.45
2023-05-09T12:07:02.577Z,20.91
2023-05-09T12:09:28.805Z,20.98
2023-05-09T12:11:55.068Z,21.15
2023-05-09T12:14:21.293Z,21.35
2023-05-09T12:16:47.530Z,21.50
2023-05-09T12:19:13.756Z,21.51
2023-05-09T12:21:40.002Z,20.99
2023-05-09T12:24:06.240Z,21.14
2023-05-09T12:26:32.485Z,21.24
2023-05-09T12:28:58.881Z,21.32
2023-05-09T12:31:25.212Z,21.90
2023-05-09T12:33:51.459Z,21.05
2023-05-09T12:36:17.737Z,20.58
2023-05-09T12:38:44.071Z,20.86
2023-05-09T12:41:22.434Z,20.86
2023-05-09T12:43:56.575Z,20.39
2023-05-09T12:46:23.100Z,21.10
2023-05-09T12:48:49.421Z,21.22
2023-05-09T12:51:15.678Z,20.25
2023-05-09T12:53:41.979Z,20.06
2023-05-09T12:56:08.201Z,20.09
2023-05-09T12:58:34.472Z,20.04
2023-05-09T13:01:00.819Z,19.92
2023-05-09T13:03:27.104Z,19.98
2023-05-09T13:05:53.416Z,19.95
2023-05-09T13:08:19.693Z,19.49
2023-05-09T13:10:45.920Z,19.09
2023-05-09T13:13:12.290Z,19.52
2023-05-09T13:15:38.585Z,19.36
2023-05-09T13:18:04.889Z,19.20
2023-05-09T13:20:31.188Z,19.13
2023-05-09T13:22:57.507Z,19.22
2023-05-09T13:25:23.826Z,19.55
2023-05-09T13:27:50.117Z,19.80
2023-05-09T13:30:16.592Z,19.89
2023-05-09T13:32:43.118Z,19.70
2023-05-09T13:35:09.400Z,19.75
2023-05-09T13:37:35.644Z,20.03
2023-05-09T13:40:01.918Z,19.65
2023-05-09T13:42:28.216Z,19.65
2023-05-09T13:44:54.450Z,19.61
2023-05-09T13:47:20.753Z,19.86
2023-05-09T13:49:47.051Z,20.08
2023-05-09T13:52:13.395Z,19.58
2023-05-09T13:54:39.649Z,19.37
2023-05-09T13:57:05.917Z,19.80
2023-05-09T13:59:32.152Z,19.34
2023-05-09T14:01:58.490Z,18.79
2023-05-09T14:04:24.830Z,18.60
2023-05-09T14:06:51.134Z,19.10
2023-05-09T14:09:17.364Z,19.37
2023-05-09T14:11:43.629Z,18.83
2023-05-09T14:14:09.911Z,18.99
2023-05-09T14:16:36.206Z,18.95
2023-05-09T14:19:02.482Z,19.23
2023-05-09T14:21:28.726Z,19.43
2023-05-09T14:23:54.968Z,18.94
2023-05-09T14:26:21.217Z,19.35
2023-05-09T14:28:47.483Z,19.15
2023-05-09T14:31:13.754Z,18.68
2023-05-09T14:33:40.051Z,18.68
2023-05-09T14:36:06.274Z,18.79
2023-05-09T14:38:32.524Z,19.20
2023-05-09T14:40:58.747Z,18.56
2023-05-09T14:43:25.015Z,18.93
2023-05-09T14:45:51.303Z,19.09
2023-05-09T14:48:17.640Z,18.82
2023-05-09T14:50:43.986Z,18.76
2023-05-09T14:53:10.367Z,19.09
2023-05-09T14:55:36.606Z,18.64
2023-05-09T14:58:02.903Z,19.03
2023-05-09T15:00:29.466Z,19.29
2023-05-09T15:02:55.824Z,19.06
2023-05-09T15:05:22.127Z,19.28
2023-05-09T15:07:48.476Z,18.43
2023-05-09T15:10:15.045Z,18.74
2023-05-09T15:12:41.499Z,18.90
2023-05-09T15:15:07.831Z,18.81
2023-05-09T15:17:34.067Z,18.94
2023-05-09T15:20:00.386Z,18.69
2023-05-09T15:22:26.698Z,18.55
2023-05-09T15:24:52.928Z,18.43
2023-05-09T15:27:19.224Z,18.15
2023-05-09T15:29:45.534Z,18.06
2023-05-09T15:32:11.802Z,17.89
2023-05-09T15:34:38.059Z,17.75
2023-05-09T15:37:04.365Z,17.23
2023-05-09T15:39:30.620Z,17.74
2023-05-09T15:41:56.889Z,17.12
2023-05-09T15:44:23.160Z,17.29
2023-05-09T15:46:49.375Z,17.44
2023-05-09T15:49:15.655Z,17.14
2023-05-09T15:51:41.971Z,17.06
2023-05-09T15:54:08.233Z,17.19
2023-05-09T15:56:34.509Z,17.29
2023-05-09T15:59:00.809Z,17.16
2023-05-09T16:01:27.067Z,17.43
2023-05-09T16:03:53.482Z,17.30
2023-05-09T16:06:19.769Z,16.80
2023-05-09T16:08:45.992Z,17.09
2023-05-09T16:11:12.270Z,17.46
2023-05-09T16:13:38.653Z,17.24
2023-05-09T16:16:04.924Z,16.77
2023-05-09T16:18:31.232Z,16.56
2023-05-09T16:20:57.520Z,16.84
2023-05-09T16:23:23.780Z,17.23
2023-05-09T16:25:50.069Z,16.30
2023-05-09T16:28:16.404Z,16.45
2023-05-09T16:30:42.624Z,16.87
2023-05-09T16:33:08.959Z,16.80
2023-05-09T16:35:35.345Z,16.81
2023-05-09T16:38:01.573Z,16.60
2023-05-09T16:40:27.797Z,16.82
2023-05-09T16:42:54.097Z,16.75
2023-05-09T16:45:20.392Z,16.51
2023-05-09T16:47:46.669Z,17.01
2023-05-09T16:50:13.122Z,16.57
2023-05-09T16:52:39.492Z,15.87
2023-05-09T16:55:05.729Z,15.89
2023-05-09T16:57:32.008Z,16.16
2023-05-09T16:59:58.301Z,16.43
2023-05-09T17:02:24.585Z,15.63
2023-05-09T17:04:50.889Z,15.97
2023-05-09T17:07:17.210Z,16.38
2023-05-09T17:09:43.498Z,16.36
2023-05-09T17:12:09.778Z,16.56
2023-05-09T17:14:36.080Z,16.14
2023-05-09T17:17:02.374Z,15.56
2023-05-09T17:19:28.656Z,15.50
2023-05-09T17:21:54.894Z,15.45
2023-05-09T17:24:21.130Z,15.85
2023-05-09T17:26:47.424Z,16.12
2023-05-09T17:29:13.686Z,15.82
2023-05-09T17:31:39.964Z,15.81
2023-05-09T17:34:06.254Z,15.71
2023-05-09T17:36:32.839Z,16.01
2023-05-09T17:38:59.096Z,15.91
2023-05-09T17:41:25.385Z,16.06
2023-05-09T17:43:51.725Z,16.18
2023-05-09T17:46:18.024Z,16.38
2023-05-09T17:48:44.352Z,15.80
2023-05-09T17:51:10.633Z,15.98
2023-05-09T17:53:36.884Z,16.15
2023-05-09T17:56:03.167Z,16.20
2023-05-09T17:58:29.757Z,16.23
2023-05-09T18:00:56.396Z,15.84
2023-05-09T18:03:22.912Z,15.77
2023-05-09T18:05:49.324Z,15.80
2023-05-09T18:08:15.554Z,15.62
2023-05-09T18:10:41.904Z,15.46
2023-05-09T18:13:08.280Z,15.09
2023-05-09T18:15:34.570Z,15.58
2023-05-09T18:18:00.974Z,14.78
2023-05-09T18:20:27.349Z,14.71
2023-05-09T18:22:53.696Z,15.20
2023-05-09T18:25:20.312Z,15.42
2023-05-09T18:27:46.695Z,15.42
2023-05-09T18:30:13.045Z,15.21
2023-05-09T18:32:39.495Z,15.24
2023-05-09T18:35:05.911Z,15.16
2023-05-09T18:37:32.222Z,15.44
2023-05-09T18:39:58.591Z,15.30
2023-05-09T18:42:24.997Z,14.96
2023-05-09T18:44:51.373Z,15.30
2023-05-09T18:47:17.835Z,14.81
2023-05-09T18:49:44.385Z,14.93
2023-05-09T18:52:10.789Z,15.06
2023-05-09T18:54:37.219Z,15.30
2023-05-09T18:57:08.217Z,15.17
2023-05-09T18:59:34.556Z,15.16
2023-05-09T19:02:00.951Z,15.37
2023-05-09T19:04:27.345Z,15.38
2023-05-09T19:06:53.685Z,15.48
2023-05-09T19:09:20.152Z,15.64
2023-05-09T19:11:46.701Z,15.17
2023-05-09T19:14:13.122Z,15.12
2023-05-09T19:16:39.627Z,15.44
2023-05-09T19:19:06.105Z,15.21
2023-05-09T19:21:32.515Z,15.29
2023-05-09T19:23:59.009Z,14.95
2023-05-09T19:26:25.626Z,14.40
2023-05-09T19:28:52.107Z,14.63
2023-05-09T19:31:18.585Z,14.90
2023-05-09T19:33:45.048Z,14.54
2023-05-09T19:36:11.551Z,14.69
2023-05-09T19:38:38.045Z,14.27
2023-05-09T19:41:07.024Z,14.50
2023-05-09T19:43:33.542Z,14.45
2023-05-09T19:46:00.177Z,14.54
2023-05-09T19:48:26.666Z,14.35
2023-05-09T19:50:55.542Z,14.53
2023-05-09T19:53:21.952Z,14.87
2023-05-09T19:55:48.390Z,14.80
2023-05-09T19:58:16.897Z,15.11
2023-05-09T20:00:44.056Z,14.42
2023-05-09T20:03:10.476Z,14.38
2023-05-09T20:05:37.038Z,14.05
2023-05-09T20:08:03.476Z,13.54
2023-05-09T20:10:32.230Z,12.96
2023-05-09T20:12:58.663Z,13.53
2023-05-09T20:15:28.030Z,13.65
2023-05-09T20:17:54.436Z,13.07
2023-05-09T20:20:21.020Z,12.98
2023-05-09T20:22:47.364Z,13.49
2023-05-09T20:25:13.751Z,13.40
2023-05-09T20:27:40.116Z,13.86
2023-05-09T20:30:06.407Z,14.25
2023-05-09T20:32:32.762Z,14.04
2023-05-09T20:34:59.102Z,13.78
2023-05-09T20:37:25.379Z,13.46
2023-05-09T20:39:51.731Z,13.11
2023-05-09T20:42:18.030Z,12.92
2023-05-09T20:44:44.311Z,13.46
2023-05-09T20:47:10.574Z,13.32
2023-05-09T20:49:36.819Z,13.06
2023-05-09T20:52:03.047Z,12.62
2023-05-09T20:54:29.354Z,12.75
2023-05-09T20:56:55.635Z,13.47
2023-05-09T20:59:21.867Z,13.40
2023-05-09T21:01:48.102Z,13.81
2023-05-09T21:04:14.834Z,13.85
2023-05-09T21:06:41.066Z,13.96
2023-05-09T21:09:07.314Z,12.92
2023-05-09T21:11:33.579Z,12.93
2023-05-09T21:13:59.831Z,12.99
2023-05-09T21:16:26.102Z,13.33
2023-05-09T21:18:52.388Z,13.54
2023-05-09T21:21:18.701Z,13.72
2023-05-09T21:23:44.950Z,13.71
2023-05-09T21:26:11.241Z,13.84
2023-05-09T21:28:37.544Z,13.98
2023-05-09T21:31:03.807Z,14.06
2023-05-09T21:33:30.080Z,14.11
2023-05-09T21:35:56.388Z,13.62
2023-05-09T21:38:22.605Z,13.79
2023-05-09T21:40:48.865Z,13.98
2023-05-09T21:43:15.128Z,13.99
2023-05-09T21:45:41.364Z,13.11
2023-05-09T21:48:07.675Z,13.29
2023-05-09T21:50:34.009Z,13.10
2023-05-09T21:53:00.255Z,13.20
2023-05-09T21:55:26.562Z,13.44
2023-05-09T21:57:52.844Z,12.70
2023-05-09T22:00:19.276Z,13.13
2023-05-09T22:02:45.739Z,13.32
2023-05-09T22:05:12.020Z,13.71
2023-05-09T22:07:38.258Z,13.84
2023-05-09T22:10:04.811Z,14.00
2023-05-09T22:12:31.037Z,14.16
2023-05-09T22:14:57.276Z,13.78
2023-05-09T22:17:23.532Z,13.99
2023-05-09T22:19:49.783Z,13.85
2023-05-09T22:22:16.010Z,14.08
2023-05-09T22:24:42.304Z,13.90
2023-05-09T22:27:08.624Z,14.15
2023-05-09T22:29:34.864Z,14.20
2023-05-09T22:32:01.159Z,14.06
2023-05-09T22:34:27.487Z,13.79
2023-05-09T22:36:53.735Z,13.77
2023-05-09T22:39:19.995Z,13.94
2023-05-09T22:41:46.238Z,13.39
2023-05-09T22:44:12.480Z,13.52
2023-05-09T22:46:38.744Z,13.87
2023-05-09T22:49:04.981Z,14.03
2023-05-09T22:51:31.231Z,13.67
2023-05-09T22:53:57.486Z,13.34
2023-05-09T22:56:23.717Z,13.80
2023-05-09T22:58:49.954Z,13.78
2023-05-09T23:01:16.264Z,13.15
2023-05-09T23:03:42.584Z,12.75
2023-05-09T23:06:08.848Z,13.08
2023-05-09T23:08:35.088Z,13.29
2023-05-09T23:11:01.387Z,13.12
2023-05-09T23:13:27.754Z,12.57
2023-05-09T23:15:54.039Z,13.09
2023-05-09T23:18:20.290Z,12.99
2023-05-09T23:20:46.503Z,13.50
2023-05-09T23:23:12.754Z,13.49
2023-05-09T23:25:38.987Z,13.41
2023-05-09T23:28:05.202Z,13.43
2023-05-09T23:30:31.430Z,13.60
2023-05-09T23:32:57.734Z,13.76
2023-05-09T23:35:23.980Z,13.87
2023-05-09T23:37:50.284Z,13.94
2023-05-09T23:40:16.826Z,14.13
2023-05-09T23:42:43.204Z,13.67
2023-05-09T23:45:09.481Z,13.39
2023-05-09T23:47:35.757Z,13.02
2023-05-09T23:50:02.035Z,12.81
2023-05-09T23:52:28.298Z,12.52
2023-05-09T23:54:54.536Z,12.31
2023-05-09T23:57:20.786Z,12.07
2023-05-09T23:59:47.027Z,12.30
